sensor_id;sensor_type;location;lat;lon;timestamp;temperature;humidity
42905;DHT22;28550;51.228;4.528;2023-08-17T00:01:51;19.30;1.00
42905;DHT22;28550;51.228;4.528;2023-08-17T00:04:17;19.10;4.30
42905;DHT22;28550;51.228;4.528;2023-08-17T00:06:43;19.20;3.70
42905;DHT22;28550;51.228;4.528;2023-08-17T00:09:09;19.20;1.00
42905;DHT22;28550;51.228;4.528;2023-08-17T00:11:35;19.20;1.00
42905;DHT22;28550;51.228;4.528;2023-08-17T00:14:01;19.20;1.60
42905;DHT22;28550;51.228;4.528;2023-08-17T00:16:27;19.20;2.60
42905;DHT22;28550;51.228;4.528;2023-08-17T00:18:53;19.20;1.00
42905;DHT22;28550;51.228;4.528;2023-08-17T00:21:19;19.20;1.00
42905;DHT22;28550;51.228;4.528;2023-08-17T00:23:44;19.10;7.40
42905;DHT22;28550;51.228;4.528;2023-08-17T00:26:10;19.00;6.30
42905;DHT22;28550;51.228;4.528;2023-08-17T00:28:36;19.00;10.70
42905;DHT22;28550;51.228;4.528;2023-08-17T00:31:02;18.90;15.10
42905;DHT22;28550;51.228;4.528;2023-08-17T00:33:28;18.80;19.70
42905;DHT22;28550;51.228;4.528;2023-08-17T00:35:53;18.80;20.60
42905;DHT22;28550;51.228;4.528;2023-08-17T00:38:19;18.80;20.60
42905;DHT22;28550;51.228;4.528;2023-08-17T00:40:45;18.80;16.80
42905;DHT22;28550;51.228;4.528;2023-08-17T00:43:11;18.70;23.80
42905;DHT22;28550;51.228;4.528;2023-08-17T00:45:36;18.60;25.00
42905;DHT22;28550;51.228;4.528;2023-08-17T00:48:03;18.60;26.10
42905;DHT22;28550;51.228;4.528;2023-08-17T00:50:31;18.60;29.80
42905;DHT22;28550;51.228;4.528;2023-08-17T00:52:57;18.50;36.70
42905;DHT22;28550;51.228;4.528;2023-08-17T00:55:24;18.50;37.80
42905;DHT22;28550;51.228;4.528;2023-08-17T00:57:50;18.40;38.90
42905;DHT22;28550;51.228;4.528;2023-08-17T01:00:17;18.40;41.20
42905;DHT22;28550;51.228;4.528;2023-08-17T01:02:44;18.40;40.30
42905;DHT22;28550;51.228;4.528;2023-08-17T01:05:10;18.40;40.50
42905;DHT22;28550;51.228;4.528;2023-08-17T01:07:35;18.30;45.20
42905;DHT22;28550;51.228;4.528;2023-08-17T01:10:03;18.30;47.50
42905;DHT22;28550;51.228;4.528;2023-08-17T01:13:00;18.20;50.10
42905;DHT22;28550;51.228;4.528;2023-08-17T01:15:37;18.30;50.60
42905;DHT22;28550;51.228;4.528;2023-08-17T01:18:23;18.40;46.00
42905;DHT22;28550;51.228;4.528;2023-08-17T01:20:49;18.40;42.60
42905;DHT22;28550;51.228;4.528;2023-08-17T01:23:15;18.50;39.40
42905;DHT22;28550;51.228;4.528;2023-08-17T01:25:41;18.70;31.20
42905;DHT22;28550;51.228;4.528;2023-08-17T01:28:07;18.70;29.30
42905;DHT22;28550;51.228;4.528;2023-08-17T01:33:32;18.80;27.90
42905;DHT22;28550;51.228;4.528;2023-08-17T01:38:25;18.80;20.10
42905;DHT22;28550;51.228;4.528;2023-08-17T01:40:55;18.80;24.00
42905;DHT22;28550;51.228;4.528;2023-08-17T01:43:22;18.80;23.00
42905;DHT22;28550;51.228;4.528;2023-08-17T01:45:48;18.90;18.70
42905;DHT22;28550;51.228;4.528;2023-08-17T01:48:14;18.90;15.80
42905;DHT22;28550;51.228;4.528;2023-08-17T01:50:39;18.90;17.10
42905;DHT22;28550;51.228;4.528;2023-08-17T01:53:05;18.80;19.80
42905;DHT22;28550;51.228;4.528;2023-08-17T01:55:31;18.70;25.40
42905;DHT22;28550;51.228;4.528;2023-08-17T01:57:56;18.70;26.40
42905;DHT22;28550;51.228;4.528;2023-08-17T02:00:22;18.70;24.70
42905;DHT22;28550;51.228;4.528;2023-08-17T02:02:48;18.60;24.60
42905;DHT22;28550;51.228;4.528;2023-08-17T02:05:14;18.70;22.40
42905;DHT22;28550;51.228;4.528;2023-08-17T02:07:39;18.60;27.20
42905;DHT22;28550;51.228;4.528;2023-08-17T02:10:05;18.50;27.40
42905;DHT22;28550;51.228;4.528;2023-08-17T02:12:31;18.50;32.30
42905;DHT22;28550;51.228;4.528;2023-08-17T02:14:57;18.50;32.10
42905;DHT22;28550;51.228;4.528;2023-08-17T02:17:22;18.50;32.90
42905;DHT22;28550;51.228;4.528;2023-08-17T02:19:48;18.40;32.40
42905;DHT22;28550;51.228;4.528;2023-08-17T02:22:16;18.30;36.50
42905;DHT22;28550;51.228;4.528;2023-08-17T02:24:41;18.30;38.80
42905;DHT22;28550;51.228;4.528;2023-08-17T02:27:09;18.20;42.40
42905;DHT22;28550;51.228;4.528;2023-08-17T02:29:35;18.10;45.40
42905;DHT22;28550;51.228;4.528;2023-08-17T02:32:00;18.10;44.80
42905;DHT22;28550;51.228;4.528;2023-08-17T02:34:27;18.10;47.40
42905;DHT22;28550;51.228;4.528;2023-08-17T02:36:54;18.00;48.90
42905;DHT22;28550;51.228;4.528;2023-08-17T02:39:19;18.00;48.20
42905;DHT22;28550;51.228;4.528;2023-08-17T02:41:45;18.10;47.20
42905;DHT22;28550;51.228;4.528;2023-08-17T02:44:14;17.90;51.70
42905;DHT22;28550;51.228;4.528;2023-08-17T02:46:40;17.90;54.00
42905;DHT22;28550;51.228;4.528;2023-08-17T02:49:05;17.80;55.40
42905;DHT22;28550;51.228;4.528;2023-08-17T02:51:31;17.80;56.80
42905;DHT22;28550;51.228;4.528;2023-08-17T02:53:57;17.80;54.20
42905;DHT22;28550;51.228;4.528;2023-08-17T02:56:22;17.80;58.30
42905;DHT22;28550;51.228;4.528;2023-08-17T02:58:48;17.80;57.70
42905;DHT22;28550;51.228;4.528;2023-08-17T03:01:14;17.80;56.10
42905;DHT22;28550;51.228;4.528;2023-08-17T03:03:39;17.70;56.50
42905;DHT22;28550;51.228;4.528;2023-08-17T03:06:06;17.70;57.50
42905;DHT22;28550;51.228;4.528;2023-08-17T03:08:32;17.70;60.20
42905;DHT22;28550;51.228;4.528;2023-08-17T03:10:57;17.50;64.30
42905;DHT22;28550;51.228;4.528;2023-08-17T03:13:23;17.60;64.50
42905;DHT22;28550;51.228;4.528;2023-08-17T03:15:49;17.50;67.10
42905;DHT22;28550;51.228;4.528;2023-08-17T03:18:15;17.50;68.20
42905;DHT22;28550;51.228;4.528;2023-08-17T03:20:40;17.50;67.60
42905;DHT22;28550;51.228;4.528;2023-08-17T03:23:06;17.50;66.70
42905;DHT22;28550;51.228;4.528;2023-08-17T03:25:35;17.40;69.30
42905;DHT22;28550;51.228;4.528;2023-08-17T03:28:03;17.40;69.90
42905;DHT22;28550;51.228;4.528;2023-08-17T03:30:29;17.40;68.60
42905;DHT22;28550;51.228;4.528;2023-08-17T03:32:55;17.30;69.90
42905;DHT22;28550;51.228;4.528;2023-08-17T03:35:21;17.30;71.70
42905;DHT22;28550;51.228;4.528;2023-08-17T03:37:47;17.40;68.00
42905;DHT22;28550;51.228;4.528;2023-08-17T03:40:12;17.30;70.50
42905;DHT22;28550;51.228;4.528;2023-08-17T03:42:38;17.20;72.60
42905;DHT22;28550;51.228;4.528;2023-08-17T03:45:04;17.20;74.30
42905;DHT22;28550;51.228;4.528;2023-08-17T03:47:30;17.20;74.70
42905;DHT22;28550;51.228;4.528;2023-08-17T03:49:56;17.30;71.70
42905;DHT22;28550;51.228;4.528;2023-08-17T03:52:22;17.30;70.80
42905;DHT22;28550;51.228;4.528;2023-08-17T03:54:48;17.40;68.60
42905;DHT22;28550;51.228;4.528;2023-08-17T03:57:13;17.60;63.10
42905;DHT22;28550;51.228;4.528;2023-08-17T03:59:41;17.60;61.40
42905;DHT22;28550;51.228;4.528;2023-08-17T04:02:06;17.70;62.50
42905;DHT22;28550;51.228;4.528;2023-08-17T04:04:32;17.70;59.10
42905;DHT22;28550;51.228;4.528;2023-08-17T04:06:58;17.80;57.70
42905;DHT22;28550;51.228;4.528;2023-08-17T04:09:24;17.80;53.70
42905;DHT22;28550;51.228;4.528;2023-08-17T04:11:49;17.90;51.20
42905;DHT22;28550;51.228;4.528;2023-08-17T04:14:15;18.00;47.70
42905;DHT22;28550;51.228;4.528;2023-08-17T04:16:41;18.00;45.40
42905;DHT22;28550;51.228;4.528;2023-08-17T04:19:06;18.00;46.80
42905;DHT22;28550;51.228;4.528;2023-08-17T04:21:32;17.90;45.20
42905;DHT22;28550;51.228;4.528;2023-08-17T04:23:58;18.00;41.20
42905;DHT22;28550;51.228;4.528;2023-08-17T04:26:27;18.00;40.20
42905;DHT22;28550;51.228;4.528;2023-08-17T04:28:53;18.00;36.20
42905;DHT22;28550;51.228;4.528;2023-08-17T04:31:18;18.00;35.50
42905;DHT22;28550;51.228;4.528;2023-08-17T04:33:44;18.00;38.00
42905;DHT22;28550;51.228;4.528;2023-08-17T04:36:10;17.90;35.30
42905;DHT22;28550;51.228;4.528;2023-08-17T04:38:35;17.90;34.00
42905;DHT22;28550;51.228;4.528;2023-08-17T04:41:01;17.90;33.10
42905;DHT22;28550;51.228;4.528;2023-08-17T04:43:27;17.90;31.70
42905;DHT22;28550;51.228;4.528;2023-08-17T04:45:52;18.00;31.10
42905;DHT22;28550;51.228;4.528;2023-08-17T04:48:18;18.00;33.00
42905;DHT22;28550;51.228;4.528;2023-08-17T04:50:44;17.90;27.20
42905;DHT22;28550;51.228;4.528;2023-08-17T04:53:10;18.00;27.50
42905;DHT22;28550;51.228;4.528;2023-08-17T04:55:36;18.00;27.10
42905;DHT22;28550;51.228;4.528;2023-08-17T04:58:01;18.00;26.30
42905;DHT22;28550;51.228;4.528;2023-08-17T05:00:27;18.10;23.50
42905;DHT22;28550;51.228;4.528;2023-08-17T05:02:55;18.10;20.10
42905;DHT22;28550;51.228;4.528;2023-08-17T05:05:21;18.20;13.70
42905;DHT22;28550;51.228;4.528;2023-08-17T05:07:48;18.20;17.90
42905;DHT22;28550;51.228;4.528;2023-08-17T05:10:13;18.10;16.80
42905;DHT22;28550;51.228;4.528;2023-08-17T05:12:39;18.00;16.20
42905;DHT22;28550;51.228;4.528;2023-08-17T05:15:05;18.10;19.40
42905;DHT22;28550;51.228;4.528;2023-08-17T05:17:31;18.10;15.40
42905;DHT22;28550;51.228;4.528;2023-08-17T05:19:57;18.00;19.90
42905;DHT22;28550;51.228;4.528;2023-08-17T05:22:23;18.00;21.90
42905;DHT22;28550;51.228;4.528;2023-08-17T05:24:48;18.10;20.40
42905;DHT22;28550;51.228;4.528;2023-08-17T05:27:14;18.20;16.00
42905;DHT22;28550;51.228;4.528;2023-08-17T05:29:43;18.20;14.60
42905;DHT22;28550;51.228;4.528;2023-08-17T05:32:09;18.30;10.50
42905;DHT22;28550;51.228;4.528;2023-08-17T05:34:35;18.20;11.90
42905;DHT22;28550;51.228;4.528;2023-08-17T05:37:01;18.20;16.50
42905;DHT22;28550;51.228;4.528;2023-08-17T05:39:28;18.20;18.00
42905;DHT22;28550;51.228;4.528;2023-08-17T05:41:54;18.20;12.10
42905;DHT22;28550;51.228;4.528;2023-08-17T05:44:20;18.30;12.50
42905;DHT22;28550;51.228;4.528;2023-08-17T05:46:45;18.50;9.50
42905;DHT22;28550;51.228;4.528;2023-08-17T05:49:11;18.60;7.20
42905;DHT22;28550;51.228;4.528;2023-08-17T05:51:37;18.60;1.00
42905;DHT22;28550;51.228;4.528;2023-08-17T05:54:03;18.70;1.00
42905;DHT22;28550;51.228;4.528;2023-08-17T05:56:29;18.50;1.40
42905;DHT22;28550;51.228;4.528;2023-08-17T05:58:54;18.50;1.00
42905;DHT22;28550;51.228;4.528;2023-08-17T06:01:20;18.50;2.60
42905;DHT22;28550;51.228;4.528;2023-08-17T06:03:46;18.40;3.10
42905;DHT22;28550;51.228;4.528;2023-08-17T06:06:11;18.50;4.20
42905;DHT22;28550;51.228;4.528;2023-08-17T06:08:37;18.60;2.40
42905;DHT22;28550;51.228;4.528;2023-08-17T06:11:03;18.70;1.60
42905;DHT22;28550;51.228;4.528;2023-08-17T06:13:28;18.50;1.00
42905;DHT22;28550;51.228;4.528;2023-08-17T06:15:56;18.50;3.50
42905;DHT22;28550;51.228;4.528;2023-08-17T06:18:22;18.70;3.00
42905;DHT22;28550;51.228;4.528;2023-08-17T06:20:48;18.70;1.00
42905;DHT22;28550;51.228;4.528;2023-08-17T06:23:16;18.80;1.00
42905;DHT22;28550;51.228;4.528;2023-08-17T06:25:41;18.90;1.00
42905;DHT22;28550;51.228;4.528;2023-08-17T06:28:07;18.90;1.00
42905;DHT22;28550;51.228;4.528;2023-08-17T06:30:33;19.00;1.00
42905;DHT22;28550;51.228;4.528;2023-08-17T06:32:59;18.90;1.00
42905;DHT22;28550;51.228;4.528;2023-08-17T06:35:24;18.90;1.00
42905;DHT22;28550;51.228;4.528;2023-08-17T06:37:50;19.00;1.00
42905;DHT22;28550;51.228;4.528;2023-08-17T06:40:17;18.90;1.00
42905;DHT22;28550;51.228;4.528;2023-08-17T06:42:42;18.70;1.00
42905;DHT22;28550;51.228;4.528;2023-08-17T06:45:08;18.60;1.00
42905;DHT22;28550;51.228;4.528;2023-08-17T06:47:34;18.60;1.00
42905;DHT22;28550;51.228;4.528;2023-08-17T06:50:00;18.70;1.00
42905;DHT22;28550;51.228;4.528;2023-08-17T06:52:25;18.80;1.00
42905;DHT22;28550;51.228;4.528;2023-08-17T06:54:51;19.00;1.00
42905;DHT22;28550;51.228;4.528;2023-08-17T06:57:17;19.00;1.00
42905;DHT22;28550;51.228;4.528;2023-08-17T06:59:42;19.00;1.00
42905;DHT22;28550;51.228;4.528;2023-08-17T07:02:11;19.00;1.00
42905;DHT22;28550;51.228;4.528;2023-08-17T07:04:37;19.20;1.00
42905;DHT22;28550;51.228;4.528;2023-08-17T07:07:03;19.00;1.00
42905;DHT22;28550;51.228;4.528;2023-08-17T07:09:29;19.10;1.00
42905;DHT22;28550;51.228;4.528;2023-08-17T07:11:54;19.30;1.00
42905;DHT22;28550;51.228;4.528;2023-08-17T07:14:20;19.60;1.00
42905;DHT22;28550;51.228;4.528;2023-08-17T07:16:46;19.80;1.00
42905;DHT22;28550;51.228;4.528;2023-08-17T07:19:11;20.10;1.00
42905;DHT22;28550;51.228;4.528;2023-08-17T07:21:39;20.50;1.00
42905;DHT22;28550;51.228;4.528;2023-08-17T07:24:15;20.50;1.00
42905;DHT22;28550;51.228;4.528;2023-08-17T07:26:41;20.60;1.00
42905;DHT22;28550;51.228;4.528;2023-08-17T07:29:07;20.70;1.00
42905;DHT22;28550;51.228;4.528;2023-08-17T07:31:33;21.00;1.00
42905;DHT22;28550;51.228;4.528;2023-08-17T07:34:19;21.40;1.00
42905;DHT22;28550;51.228;4.528;2023-08-17T07:36:45;21.70;99.90
42905;DHT22;28550;51.228;4.528;2023-08-17T07:39:11;22.10;99.90
42905;DHT22;28550;51.228;4.528;2023-08-17T07:41:37;22.80;99.90
42905;DHT22;28550;51.228;4.528;2023-08-17T07:44:03;22.60;99.90
42905;DHT22;28550;51.228;4.528;2023-08-17T07:46:29;22.50;99.90
42905;DHT22;28550;51.228;4.528;2023-08-17T07:48:54;22.20;99.90
42905;DHT22;28550;51.228;4.528;2023-08-17T07:51:21;22.40;99.90
42905;DHT22;28550;51.228;4.528;2023-08-17T07:53:47;22.20;99.90
42905;DHT22;28550;51.228;4.528;2023-08-17T07:56:13;22.00;99.90
42905;DHT22;28550;51.228;4.528;2023-08-17T07:58:39;22.10;99.90
42905;DHT22;28550;51.228;4.528;2023-08-17T08:01:04;22.00;99.90
42905;DHT22;28550;51.228;4.528;2023-08-17T08:03:31;21.50;99.90
42905;DHT22;28550;51.228;4.528;2023-08-17T08:05:56;21.50;99.90
42905;DHT22;28550;51.228;4.528;2023-08-17T08:08:22;21.30;1.00
42905;DHT22;28550;51.228;4.528;2023-08-17T08:10:48;21.20;1.00
42905;DHT22;28550;51.228;4.528;2023-08-17T08:13:13;21.00;1.00
42905;DHT22;28550;51.228;4.528;2023-08-17T08:15:39;21.10;1.00
42905;DHT22;28550;51.228;4.528;2023-08-17T08:18:05;21.40;1.00
42905;DHT22;28550;51.228;4.528;2023-08-17T08:20:31;21.80;1.00
42905;DHT22;28550;51.228;4.528;2023-08-17T08:22:58;22.20;99.90
42905;DHT22;28550;51.228;4.528;2023-08-17T08:25:23;22.20;99.90
42905;DHT22;28550;51.228;4.528;2023-08-17T08:27:49;21.90;99.90
42905;DHT22;28550;51.228;4.528;2023-08-17T08:30:16;21.80;99.90
42905;DHT22;28550;51.228;4.528;2023-08-17T08:32:43;21.60;1.00
42905;DHT22;28550;51.228;4.528;2023-08-17T08:35:09;21.50;1.00
42905;DHT22;28550;51.228;4.528;2023-08-17T08:37:38;21.40;1.00
42905;DHT22;28550;51.228;4.528;2023-08-17T08:40:04;21.60;1.00
42905;DHT22;28550;51.228;4.528;2023-08-17T08:42:40;21.70;1.00
42905;DHT22;28550;51.228;4.528;2023-08-17T08:45:06;22.00;1.00
42905;DHT22;28550;51.228;4.528;2023-08-17T08:47:34;22.40;99.90
42905;DHT22;28550;51.228;4.528;2023-08-17T08:50:08;22.80;99.90
42905;DHT22;28550;51.228;4.528;2023-08-17T08:52:35;22.60;99.90
42905;DHT22;28550;51.228;4.528;2023-08-17T08:55:12;22.70;99.90
42905;DHT22;28550;51.228;4.528;2023-08-17T08:57:41;22.80;99.90
42905;DHT22;28550;51.228;4.528;2023-08-17T09:00:07;22.80;99.90
42905;DHT22;28550;51.228;4.528;2023-08-17T09:02:33;22.80;99.90
42905;DHT22;28550;51.228;4.528;2023-08-17T09:05:01;22.80;99.90
42905;DHT22;28550;51.228;4.528;2023-08-17T09:07:32;22.80;99.90
42905;DHT22;28550;51.228;4.528;2023-08-17T09:09:58;22.80;99.90
42905;DHT22;28550;51.228;4.528;2023-08-17T09:12:25;22.70;99.90
42905;DHT22;28550;51.228;4.528;2023-08-17T09:14:50;22.50;99.90
42905;DHT22;28550;51.228;4.528;2023-08-17T09:17:24;22.60;99.90
42905;DHT22;28550;51.228;4.528;2023-08-17T09:19:50;22.80;99.90
42905;DHT22;28550;51.228;4.528;2023-08-17T09:22:32;23.00;99.90
42905;DHT22;28550;51.228;4.528;2023-08-17T09:25:01;22.90;99.90
42905;DHT22;28550;51.228;4.528;2023-08-17T09:27:27;22.70;99.90
42905;DHT22;28550;51.228;4.528;2023-08-17T09:30:01;22.60;1.00
42905;DHT22;28550;51.228;4.528;2023-08-17T09:32:31;22.80;99.90
42905;DHT22;28550;51.228;4.528;2023-08-17T09:34:57;23.00;99.90
42905;DHT22;28550;51.228;4.528;2023-08-17T09:37:22;23.10;99.90
42905;DHT22;28550;51.228;4.528;2023-08-17T09:39:48;23.30;99.90
42905;DHT22;28550;51.228;4.528;2023-08-17T09:42:14;23.30;99.90
42905;DHT22;28550;51.228;4.528;2023-08-17T09:44:43;23.10;99.90
42905;DHT22;28550;51.228;4.528;2023-08-17T09:47:10;22.40;99.90
42905;DHT22;28550;51.228;4.528;2023-08-17T09:49:36;22.60;1.00
42905;DHT22;28550;51.228;4.528;2023-08-17T09:52:02;22.70;99.90
42905;DHT22;28550;51.228;4.528;2023-08-17T09:54:31;23.10;1.00
42905;DHT22;28550;51.228;4.528;2023-08-17T09:56:58;23.80;99.90
42905;DHT22;28550;51.228;4.528;2023-08-17T09:59:24;24.00;44.60
42905;DHT22;28550;51.228;4.528;2023-08-17T10:01:51;24.00;1.00
42905;DHT22;28550;51.228;4.528;2023-08-17T10:04:21;24.40;1.00
42905;DHT22;28550;51.228;4.528;2023-08-17T10:06:58;24.90;99.90
42905;DHT22;28550;51.228;4.528;2023-08-17T10:09:26;25.20;18.00
42905;DHT22;28550;51.228;4.528;2023-08-17T10:11:57;25.30;99.90
42905;DHT22;28550;51.228;4.528;2023-08-17T10:14:36;24.90;1.00
42905;DHT22;28550;51.228;4.528;2023-08-17T10:17:09;24.90;1.00
42905;DHT22;28550;51.228;4.528;2023-08-17T10:19:45;25.00;1.00
42905;DHT22;28550;51.228;4.528;2023-08-17T10:24:51;23.50;99.90
42905;DHT22;28550;51.228;4.528;2023-08-17T10:27:17;23.20;99.90
42905;DHT22;28550;51.228;4.528;2023-08-17T10:29:44;23.40;99.90
42905;DHT22;28550;51.228;4.528;2023-08-17T10:32:11;23.40;99.90
42905;DHT22;28550;51.228;4.528;2023-08-17T10:34:46;23.60;99.90
42905;DHT22;28550;51.228;4.528;2023-08-17T10:37:12;23.60;99.90
42905;DHT22;28550;51.228;4.528;2023-08-17T10:39:45;23.50;99.90
42905;DHT22;28550;51.228;4.528;2023-08-17T10:42:12;23.00;99.90
42905;DHT22;28550;51.228;4.528;2023-08-17T10:44:48;23.10;99.90
42905;DHT22;28550;51.228;4.528;2023-08-17T10:47:30;22.80;99.90
42905;DHT22;28550;51.228;4.528;2023-08-17T10:49:58;22.70;99.90
42905;DHT22;28550;51.228;4.528;2023-08-17T10:52:31;22.80;99.90
42905;DHT22;28550;51.228;4.528;2023-08-17T10:55:08;22.80;99.90
42905;DHT22;28550;51.228;4.528;2023-08-17T10:57:36;23.00;99.90
42905;DHT22;28550;51.228;4.528;2023-08-17T11:02:42;23.00;99.90
42905;DHT22;28550;51.228;4.528;2023-08-17T11:05:09;23.20;99.90
42905;DHT22;28550;51.228;4.528;2023-08-17T11:07:42;23.60;99.90
42905;DHT22;28550;51.228;4.528;2023-08-17T11:12:46;24.00;99.90
42905;DHT22;28550;51.228;4.528;2023-08-17T11:15:12;24.10;1.00
42905;DHT22;28550;51.228;4.528;2023-08-17T11:17:37;24.10;1.00
42905;DHT22;28550;51.228;4.528;2023-08-17T11:20:04;24.20;1.00
42905;DHT22;28550;51.228;4.528;2023-08-17T11:22:30;24.60;1.00
42905;DHT22;28550;51.228;4.528;2023-08-17T11:24:56;24.70;99.90
42905;DHT22;28550;51.228;4.528;2023-08-17T11:27:23;24.90;48.00
42905;DHT22;28550;51.228;4.528;2023-08-17T11:29:50;24.90;21.20
42905;DHT22;28550;51.228;4.528;2023-08-17T11:32:17;24.90;1.00
42905;DHT22;28550;51.228;4.528;2023-08-17T11:34:43;24.50;1.00
42905;DHT22;28550;51.228;4.528;2023-08-17T11:37:13;24.40;99.90
42905;DHT22;28550;51.228;4.528;2023-08-17T11:39:38;24.20;99.90
42905;DHT22;28550;51.228;4.528;2023-08-17T11:42:04;24.10;1.00
42905;DHT22;28550;51.228;4.528;2023-08-17T11:44:30;24.40;40.90
42905;DHT22;28550;51.228;4.528;2023-08-17T11:46:56;24.40;1.00
42905;DHT22;28550;51.228;4.528;2023-08-17T11:49:22;24.90;99.90
42905;DHT22;28550;51.228;4.528;2023-08-17T11:51:51;24.90;1.00
42905;DHT22;28550;51.228;4.528;2023-08-17T11:54:17;24.90;34.40
42905;DHT22;28550;51.228;4.528;2023-08-17T11:56:42;24.50;99.90
42905;DHT22;28550;51.228;4.528;2023-08-17T11:59:11;24.30;1.00
42905;DHT22;28550;51.228;4.528;2023-08-17T12:01:44;24.50;1.00
42905;DHT22;28550;51.228;4.528;2023-08-17T12:04:11;24.40;1.00
42905;DHT22;28550;51.228;4.528;2023-08-17T12:06:43;24.20;1.00
42905;DHT22;28550;51.228;4.528;2023-08-17T12:09:10;24.20;1.00
42905;DHT22;28550;51.228;4.528;2023-08-17T12:11:37;24.40;1.00
42905;DHT22;28550;51.228;4.528;2023-08-17T12:14:09;24.30;1.00
42905;DHT22;28550;51.228;4.528;2023-08-17T12:16:46;24.40;1.00
42905;DHT22;28550;51.228;4.528;2023-08-17T12:19:12;24.80;99.90
42905;DHT22;28550;51.228;4.528;2023-08-17T12:21:41;25.00;1.00
42905;DHT22;28550;51.228;4.528;2023-08-17T12:24:09;24.50;99.90
42905;DHT22;28550;51.228;4.528;2023-08-17T12:26:36;24.80;1.00
42905;DHT22;28550;51.228;4.528;2023-08-17T12:29:06;25.10;99.90
42905;DHT22;28550;51.228;4.528;2023-08-17T12:31:32;25.30;99.90
42905;DHT22;28550;51.228;4.528;2023-08-17T12:33:59;25.00;1.00
42905;DHT22;28550;51.228;4.528;2023-08-17T12:36:25;25.10;1.00
42905;DHT22;28550;51.228;4.528;2023-08-17T12:38:50;25.30;99.90
42905;DHT22;28550;51.228;4.528;2023-08-17T12:41:16;25.60;99.90
42905;DHT22;28550;51.228;4.528;2023-08-17T12:43:43;25.50;1.00
42905;DHT22;28550;51.228;4.528;2023-08-17T12:46:09;25.50;99.90
42905;DHT22;28550;51.228;4.528;2023-08-17T12:48:36;25.20;1.00
42905;DHT22;28550;51.228;4.528;2023-08-17T12:51:02;24.70;99.90
42905;DHT22;28550;51.228;4.528;2023-08-17T12:53:28;24.70;5.80
42905;DHT22;28550;51.228;4.528;2023-08-17T12:55:54;24.80;1.00
42905;DHT22;28550;51.228;4.528;2023-08-17T12:58:27;24.80;99.90
42905;DHT22;28550;51.228;4.528;2023-08-17T13:00:53;24.80;99.90
42905;DHT22;28550;51.228;4.528;2023-08-17T13:03:23;24.30;17.10
42905;DHT22;28550;51.228;4.528;2023-08-17T13:05:56;24.20;1.00
42905;DHT22;28550;51.228;4.528;2023-08-17T13:08:22;24.30;29.20
42905;DHT22;28550;51.228;4.528;2023-08-17T13:10:47;24.30;1.00
42905;DHT22;28550;51.228;4.528;2023-08-17T13:13:16;24.30;60.90
42905;DHT22;28550;51.228;4.528;2023-08-17T13:15:42;24.70;1.00
42905;DHT22;28550;51.228;4.528;2023-08-17T13:18:07;24.90;99.90
42905;DHT22;28550;51.228;4.528;2023-08-17T13:20:33;24.90;99.90
42905;DHT22;28550;51.228;4.528;2023-08-17T13:22:59;24.80;91.00
42905;DHT22;28550;51.228;4.528;2023-08-17T13:25:25;24.20;1.00
42905;DHT22;28550;51.228;4.528;2023-08-17T13:27:51;24.20;99.90
42905;DHT22;28550;51.228;4.528;2023-08-17T13:30:16;24.30;64.40
42905;DHT22;28550;51.228;4.528;2023-08-17T13:32:42;24.20;96.50
42905;DHT22;28550;51.228;4.528;2023-08-17T13:35:08;24.30;99.90
42905;DHT22;28550;51.228;4.528;2023-08-17T13:37:37;24.40;31.30
42905;DHT22;28550;51.228;4.528;2023-08-17T13:40:03;24.10;72.00
42905;DHT22;28550;51.228;4.528;2023-08-17T13:42:29;24.00;99.90
42905;DHT22;28550;51.228;4.528;2023-08-17T13:44:54;24.10;99.90
42905;DHT22;28550;51.228;4.528;2023-08-17T13:47:20;24.00;38.30
42905;DHT22;28550;51.228;4.528;2023-08-17T13:49:46;24.00;99.90
42905;DHT22;28550;51.228;4.528;2023-08-17T13:52:11;24.00;99.90
42905;DHT22;28550;51.228;4.528;2023-08-17T13:54:37;24.00;99.90
42905;DHT22;28550;51.228;4.528;2023-08-17T13:57:03;24.30;14.90
42905;DHT22;28550;51.228;4.528;2023-08-17T13:59:29;24.40;99.90
42905;DHT22;28550;51.228;4.528;2023-08-17T14:01:55;24.40;1.00
42905;DHT22;28550;51.228;4.528;2023-08-17T14:04:24;24.30;34.70
42905;DHT22;28550;51.228;4.528;2023-08-17T14:06:49;24.20;99.90
42905;DHT22;28550;51.228;4.528;2023-08-17T14:09:16;24.10;99.90
42905;DHT22;28550;51.228;4.528;2023-08-17T14:11:42;23.90;99.90
42905;DHT22;28550;51.228;4.528;2023-08-17T14:14:08;24.10;99.90
42905;DHT22;28550;51.228;4.528;2023-08-17T14:16:34;24.00;99.90
42905;DHT22;28550;51.228;4.528;2023-08-17T14:18:59;24.10;99.90
42905;DHT22;28550;51.228;4.528;2023-08-17T14:21:25;24.10;99.90
42905;DHT22;28550;51.228;4.528;2023-08-17T14:23:51;24.10;99.90
42905;DHT22;28550;51.228;4.528;2023-08-17T14:26:16;24.00;99.90
42905;DHT22;28550;51.228;4.528;2023-08-17T14:28:42;24.20;99.90
42905;DHT22;28550;51.228;4.528;2023-08-17T14:31:09;24.20;99.90
42905;DHT22;28550;51.228;4.528;2023-08-17T14:33:37;24.30;99.90
42905;DHT22;28550;51.228;4.528;2023-08-17T14:36:05;24.10;99.90
42905;DHT22;28550;51.228;4.528;2023-08-17T14:38:31;24.20;99.90
42905;DHT22;28550;51.228;4.528;2023-08-17T14:40:57;24.40;99.90
42905;DHT22;28550;51.228;4.528;2023-08-17T14:43:23;24.70;1.00
42905;DHT22;28550;51.228;4.528;2023-08-17T14:45:48;24.80;1.00
42905;DHT22;28550;51.228;4.528;2023-08-17T14:48:14;24.90;1.00
42905;DHT22;28550;51.228;4.528;2023-08-17T14:50:40;24.90;1.00
42905;DHT22;28550;51.228;4.528;2023-08-17T14:53:06;25.20;99.90
42905;DHT22;28550;51.228;4.528;2023-08-17T14:55:33;25.40;99.90
42905;DHT22;28550;51.228;4.528;2023-08-17T14:57:59;25.10;1.00
42905;DHT22;28550;51.228;4.528;2023-08-17T15:00:26;24.60;11.10
42905;DHT22;28550;51.228;4.528;2023-08-17T15:02:56;24.60;99.90
42905;DHT22;28550;51.228;4.528;2023-08-17T15:05:22;24.50;76.90
42905;DHT22;28550;51.228;4.528;2023-08-17T15:07:47;24.20;99.90
42905;DHT22;28550;51.228;4.528;2023-08-17T15:10:13;23.90;99.90
42905;DHT22;28550;51.228;4.528;2023-08-17T15:12:48;23.90;99.90
42905;DHT22;28550;51.228;4.528;2023-08-17T15:15:14;24.20;99.90
42905;DHT22;28550;51.228;4.528;2023-08-17T15:17:40;24.30;99.90
42905;DHT22;28550;51.228;4.528;2023-08-17T15:20:06;24.20;99.90
42905;DHT22;28550;51.228;4.528;2023-08-17T15:22:42;24.20;99.90
42905;DHT22;28550;51.228;4.528;2023-08-17T15:25:08;24.00;99.90
42905;DHT22;28550;51.228;4.528;2023-08-17T15:27:34;23.90;99.90
42905;DHT22;28550;51.228;4.528;2023-08-17T15:29:59;23.90;99.90
42905;DHT22;28550;51.228;4.528;2023-08-17T15:32:33;23.50;99.90
42905;DHT22;28550;51.228;4.528;2023-08-17T15:34:59;23.40;99.90
42905;DHT22;28550;51.228;4.528;2023-08-17T15:37:25;23.40;99.90
42905;DHT22;28550;51.228;4.528;2023-08-17T15:39:51;23.10;1.00
42905;DHT22;28550;51.228;4.528;2023-08-17T15:42:16;23.00;1.00
42905;DHT22;28550;51.228;4.528;2023-08-17T15:44:42;23.00;1.00
42905;DHT22;28550;51.228;4.528;2023-08-17T15:47:08;23.00;1.00